Time;durP1;ratioP1;P1;durP2;ratioP2;P2;SDS_P1;SDS_P2;PMS_P1;PMS_P2;Temp;Humidity;BMP_temperature;BMP_pressure;BME280_temperature;BME280_humidity;BME280_pressure;Samples;Min_cycle;Max_cycle;Signal;HPM_P1;HPM_P2
2023/01/21 00:01:28;;;;;;;0.20;0.20;;;;;;;;;;5072410;28;20303;-66
2023/01/21 00:03:54;;;;;;;0.20;0.20;;;;;;;;;;5083293;28;20415;-66
2023/01/21 00:06:21;;;;;;;0.30;0.30;;;;;;;;;;5072571;28;20257;-66
2023/01/21 00:08:47;;;;;;;0.20;0.20;;;;;;;;;;5083107;28;20210;-66
2023/01/21 00:11:15;;;;;;;0.20;0.20;;;;;;;;;;5072531;28;20239;-66
2023/01/21 00:13:42;;;;;;;0.30;0.30;;;;;;;;;;5082740;28;20275;-66
2023/01/21 00:16:09;;;;;;;0.20;0.20;;;;;;;;;;5072446;28;20255;-66
2023/01/21 00:18:35;;;;;;;0.30;0.30;;;;;;;;;;5082902;28;20237;-66
2023/01/21 00:21:02;;;;;;;0.30;0.30;;;;;;;;;;5073048;28;20246;-66
2023/01/21 00:23:28;;;;;;;0.30;0.30;;;;;;;;;;5086931;28;20391;-66
2023/01/21 00:25:58;;;;;;;0.23;0.23;;;;;;;;;;5076727;28;20256;-66
2023/01/21 00:28:27;;;;;;;0.30;0.30;;;;;;;;;;5086720;28;20279;-66
2023/01/21 00:30:56;;;;;;;0.30;0.30;;;;;;;;;;5076310;28;20245;-66
2023/01/21 00:33:22;;;;;;;0.20;0.20;;;;;;;;;;5086496;28;20197;-67
2023/01/21 00:35:56;;;;;;;0.30;0.30;;;;;;;;;;5076592;28;20308;-66
2023/01/21 00:38:22;;;;;;;0.20;0.20;;;;;;;;;;5086510;28;20270;-66
2023/01/21 00:40:49;;;;;;;0.20;0.20;;;;;;;;;;5076202;28;20263;-66
2023/01/21 00:43:15;;;;;;;0.20;0.20;;;;;;;;;;5086205;28;20291;-66
2023/01/21 00:45:43;;;;;;;0.20;0.20;;;;;;;;;;5076514;28;20239;-66
2023/01/21 00:48:09;;;;;;;0.30;0.30;;;;;;;;;;5086343;28;20285;-67
2023/01/21 00:50:35;;;;;;;0.30;0.30;;;;;;;;;;5076159;28;20259;-66
2023/01/21 00:53:02;;;;;;;0.27;0.27;;;;;;;;;;5085976;28;20257;-67
2023/01/21 00:55:28;;;;;;;0.20;0.20;;;;;;;;;;5076194;28;20272;-66
2023/01/21 00:57:55;;;;;;;0.20;0.20;;;;;;;;;;5085794;28;20192;-65
2023/01/21 01:00:21;;;;;;;0.20;0.20;;;;;;;;;;5076385;28;20391;-66
2023/01/21 01:02:49;;;;;;;0.93;0.93;;;;;;;;;;5085915;28;20407;-66
2023/01/21 01:05:15;;;;;;;0.20;0.20;;;;;;;;;;5076314;28;20205;-67
2023/01/21 01:07:44;;;;;;;0.20;0.20;;;;;;;;;;5085847;28;20209;-66
2023/01/21 01:10:11;;;;;;;0.20;0.20;;;;;;;;;;5076341;28;20204;-67
2023/01/21 01:12:37;;;;;;;0.20;0.20;;;;;;;;;;5085442;28;20255;-66
2023/01/21 01:15:04;;;;;;;0.20;0.20;;;;;;;;;;5086825;28;20279;-66
2023/01/21 01:17:30;;;;;;;0.20;0.20;;;;;;;;;;5074921;28;20240;-66
2023/01/21 01:19:58;;;;;;;0.20;0.20;;;;;;;;;;5086791;28;20211;-66
2023/01/21 01:22:24;;;;;;;0.20;0.20;;;;;;;;;;5074752;28;20436;-66
2023/01/21 01:24:51;;;;;;;0.20;0.20;;;;;;;;;;5086716;28;20265;-66
2023/01/21 01:27:17;;;;;;;0.23;0.23;;;;;;;;;;5074587;28;20415;-66
2023/01/21 01:29:44;;;;;;;3.10;3.00;;;;;;;;;;5086563;28;20244;-66
2023/01/21 01:32:10;;;;;;;0.20;0.20;;;;;;;;;;5074585;28;20256;-66
2023/01/21 01:34:37;;;;;;;0.30;0.30;;;;;;;;;;5086451;28;20264;-65
2023/01/21 01:37:04;;;;;;;0.23;0.23;;;;;;;;;;5074737;28;20312;-66
2023/01/21 01:39:31;;;;;;;0.20;0.20;;;;;;;;;;5086331;28;20239;-65
2023/01/21 01:41:57;;;;;;;0.20;0.20;;;;;;;;;;5074605;28;20481;-65
2023/01/21 01:44:42;;;;;;;0.23;0.23;;;;;;;;;;5085954;28;20259;-65
2023/01/21 01:47:09;;;;;;;0.23;0.23;;;;;;;;;;5074565;28;20258;-66
2023/01/21 01:49:35;;;;;;;0.20;0.20;;;;;;;;;;5086062;28;20385;-66
2023/01/21 01:52:03;;;;;;;0.30;0.30;;;;;;;;;;5074454;28;20260;-65
2023/01/21 01:54:33;;;;;;;0.20;0.20;;;;;;;;;;5086084;28;20240;-66
2023/01/21 01:57:00;;;;;;;0.20;0.20;;;;;;;;;;5074220;28;20311;-65
2023/01/21 01:59:27;;;;;;;0.23;0.23;;;;;;;;;;5085833;28;20203;-65
2023/01/21 02:01:54;;;;;;;0.20;0.20;;;;;;;;;;5074288;28;20269;-65
2023/01/21 02:04:23;;;;;;;0.20;0.20;;;;;;;;;;5085113;28;20295;-66
2023/01/21 02:06:50;;;;;;;0.30;0.30;;;;;;;;;;5074163;28;20314;-66
2023/01/21 02:09:16;;;;;;;0.20;0.20;;;;;;;;;;5085555;28;20278;-67
2023/01/21 02:11:44;;;;;;;0.20;0.20;;;;;;;;;;5074257;28;20450;-67
2023/01/21 02:14:10;;;;;;;0.20;0.20;;;;;;;;;;5085290;28;20235;-67
2023/01/21 02:16:45;;;;;;;0.30;0.30;;;;;;;;;;5074234;28;20658;-67
2023/01/21 02:19:29;;;;;;;0.33;0.33;;;;;;;;;;5085316;28;20250;-67
2023/01/21 02:22:01;;;;;;;0.20;0.20;;;;;;;;;;5034096;28;20259;-67
2023/01/21 02:24:42;;;;;;;0.30;0.30;;;;;;;;;;5066056;28;20559;-67
2023/01/21 02:27:24;;;;;;;0.20;0.20;;;;;;;;;;5085333;28;20537;-65
2023/01/21 02:30:09;;;;;;;0.20;0.20;;;;;;;;;;5064956;28;20277;-66
2023/01/21 02:33:08;;;;;;;0.20;0.20;;;;;;;;;;5053787;28;20235;-65
2023/01/21 02:35:39;;;;;;;0.20;0.20;;;;;;;;;;4997433;28;20304;-65
2023/01/21 02:38:10;;;;;;;0.30;0.30;;;;;;;;;;5030959;28;20438;-65
2023/01/21 02:40:38;;;;;;;0.23;0.23;;;;;;;;;;5057333;28;20266;-65
2023/01/21 02:43:07;;;;;;;0.30;0.30;;;;;;;;;;5088575;28;20293;-65
2023/01/21 02:45:38;;;;;;;0.30;0.30;;;;;;;;;;5060845;28;20258;-65
2023/01/21 02:48:06;;;;;;;0.20;0.20;;;;;;;;;;5088481;28;20247;-66
2023/01/21 02:50:33;;;;;;;0.20;0.20;;;;;;;;;;5061057;28;20306;-66
2023/01/21 02:53:02;;;;;;;0.20;0.20;;;;;;;;;;5089811;28;20224;-65
2023/01/21 02:55:29;;;;;;;0.20;0.20;;;;;;;;;;5060034;28;20498;-66
2023/01/21 02:57:58;;;;;;;0.20;0.20;;;;;;;;;;5090515;28;20204;-66
2023/01/21 03:00:26;;;;;;;0.20;0.20;;;;;;;;;;5058448;28;20280;-66
2023/01/21 03:03:07;;;;;;;0.20;0.20;;;;;;;;;;5091226;28;20228;-66
2023/01/21 03:05:39;;;;;;;0.20;0.20;;;;;;;;;;5059240;28;20301;-66
2023/01/21 03:08:11;;;;;;;0.30;0.30;;;;;;;;;;5087548;28;20231;-67
2023/01/21 03:10:40;;;;;;;0.27;0.27;;;;;;;;;;5062064;28;20548;-65
2023/01/21 03:13:11;;;;;;;0.20;0.20;;;;;;;;;;5087660;28;20280;-65
2023/01/21 03:18:26;;;;;;;0.20;0.20;;;;;;;;;;5082926;28;20203;-66
2023/01/21 03:20:55;;;;;;;0.20;0.20;;;;;;;;;;5065796;28;20430;-66
2023/01/21 03:23:26;;;;;;;0.20;0.20;;;;;;;;;;5083284;28;20256;-66
2023/01/21 03:25:53;;;;;;;0.20;0.20;;;;;;;;;;5065652;28;20261;-67
2023/01/21 03:28:22;;;;;;;0.20;0.20;;;;;;;;;;5083679;28;20266;-66
2023/01/21 03:30:52;;;;;;;0.30;0.30;;;;;;;;;;5064649;28;20234;-66
2023/01/21 03:33:18;;;;;;;0.30;0.30;;;;;;;;;;5083945;28;20272;-67
2023/01/21 03:35:47;;;;;;;0.30;0.30;;;;;;;;;;5063433;28;20250;-66
2023/01/21 03:38:16;;;;;;;0.27;0.27;;;;;;;;;;5085101;28;20233;-67
2023/01/21 03:40:47;;;;;;;0.20;0.20;;;;;;;;;;5062836;28;20518;-66
2023/01/21 03:43:13;;;;;;;0.30;0.30;;;;;;;;;;5085293;28;20300;-66
2023/01/21 03:45:43;;;;;;;0.20;0.20;;;;;;;;;;5061865;28;20239;-66
2023/01/21 03:48:13;;;;;;;0.23;0.23;;;;;;;;;;5086226;28;20277;-66
2023/01/21 03:50:43;;;;;;;0.50;0.50;;;;;;;;;;5061762;28;20310;-66
2023/01/21 03:53:09;;;;;;;0.73;0.73;;;;;;;;;;5086446;28;20241;-66
2023/01/21 03:55:36;;;;;;;0.20;0.20;;;;;;;;;;5060176;28;20247;-66
2023/01/21 03:58:03;;;;;;;0.30;0.30;;;;;;;;;;5088138;28;20225;-66
2023/01/21 04:00:30;;;;;;;0.20;0.20;;;;;;;;;;5059223;28;20311;-66
2023/01/21 04:02:56;;;;;;;0.20;0.20;;;;;;;;;;5089635;28;20208;-66
2023/01/21 04:05:22;;;;;;;0.20;0.20;;;;;;;;;;5057244;28;20509;-66
2023/01/21 04:07:49;;;;;;;0.30;0.30;;;;;;;;;;5091625;28;20269;-66
2023/01/21 04:10:16;;;;;;;0.87;0.87;;;;;;;;;;5055282;28;20550;-66
2023/01/21 04:12:42;;;;;;;0.20;0.20;;;;;;;;;;5093519;28;20440;-66
2023/01/21 04:15:11;;;;;;;0.27;0.27;;;;;;;;;;5053260;28;20268;-66
2023/01/21 04:17:37;;;;;;;0.20;0.20;;;;;;;;;;5094805;28;20389;-66
2023/01/21 04:20:04;;;;;;;0.30;0.30;;;;;;;;;;5063699;28;20333;-66
2023/01/21 04:22:31;;;;;;;0.20;0.20;;;;;;;;;;5085255;28;20248;-66
2023/01/21 04:24:57;;;;;;;0.30;0.30;;;;;;;;;;5063627;28;20290;-66
2023/01/21 04:27:23;;;;;;;0.40;0.40;;;;;;;;;;5085126;28;20245;-66
2023/01/21 04:29:50;;;;;;;0.30;0.30;;;;;;;;;;5063553;28;20275;-65
2023/01/21 04:32:17;;;;;;;1.37;1.37;;;;;;;;;;5085040;28;20265;-66
2023/01/21 04:34:44;;;;;;;0.30;0.30;;;;;;;;;;5063596;28;20210;-66
2023/01/21 04:37:10;;;;;;;0.93;0.93;;;;;;;;;;5085150;28;20294;-66
2023/01/21 04:39:36;;;;;;;0.30;0.30;;;;;;;;;;5063513;28;20235;-65
2023/01/21 04:42:04;;;;;;;0.37;0.37;;;;;;;;;;5083663;28;20253;-66
2023/01/21 04:44:30;;;;;;;0.77;0.77;;;;;;;;;;5064050;28;20234;-66
2023/01/21 04:46:56;;;;;;;0.30;0.30;;;;;;;;;;5081955;28;20310;-66
2023/01/21 04:49:24;;;;;;;0.50;0.50;;;;;;;;;;5066212;28;20464;-66
2023/01/21 04:51:50;;;;;;;0.20;0.20;;;;;;;;;;5080307;28;20306;-66
2023/01/21 04:54:17;;;;;;;0.30;0.30;;;;;;;;;;5067668;28;20207;-65
2023/01/21 04:56:43;;;;;;;0.30;0.30;;;;;;;;;;5078159;28;20589;-67
2023/01/21 04:59:10;;;;;;;0.20;0.20;;;;;;;;;;5069239;28;20558;-67
2023/01/21 05:01:36;;;;;;;0.30;0.30;;;;;;;;;;5075435;28;20600;-66
2023/01/21 05:04:03;;;;;;;0.30;0.30;;;;;;;;;;5072025;28;20492;-66
2023/01/21 05:06:30;;;;;;;0.30;0.30;;;;;;;;;;5072707;28;20482;-66
2023/01/21 05:08:57;;;;;;;0.23;0.23;;;;;;;;;;5078019;28;20276;-65
2023/01/21 05:11:23;;;;;;;0.20;0.20;;;;;;;;;;5076371;28;20339;-65
2023/01/21 05:13:50;;;;;;;0.20;0.20;;;;;;;;;;5078470;28;20203;-66
2023/01/21 05:16:16;;;;;;;0.20;0.20;;;;;;;;;;5074403;28;20286;-65
2023/01/21 05:18:44;;;;;;;0.20;0.20;;;;;;;;;;5080324;28;20273;-65
2023/01/21 05:21:11;;;;;;;0.20;0.20;;;;;;;;;;5072755;28;20268;-65
2023/01/21 05:23:38;;;;;;;0.23;0.23;;;;;;;;;;5081193;28;20253;-65
2023/01/21 05:26:05;;;;;;;2.17;1.73;;;;;;;;;;5071254;28;20595;-66
2023/01/21 05:28:31;;;;;;;0.30;0.30;;;;;;;;;;5082856;28;20277;-65
2023/01/21 05:30:59;;;;;;;2.00;1.90;;;;;;;;;;5069340;28;20263;-66
2023/01/21 05:33:28;;;;;;;0.23;0.23;;;;;;;;;;5084256;28;20243;-65
2023/01/21 05:35:54;;;;;;;0.20;0.20;;;;;;;;;;5068613;28;20306;-66
2023/01/21 05:38:21;;;;;;;0.30;0.30;;;;;;;;;;5085404;28;20205;-66
2023/01/21 05:40:49;;;;;;;0.30;0.30;;;;;;;;;;5066453;28;20273;-66
2023/01/21 05:43:15;;;;;;;0.20;0.20;;;;;;;;;;5087144;28;20392;-66
2023/01/21 05:45:41;;;;;;;1.23;1.23;;;;;;;;;;5064939;28;20256;-65
2023/01/21 05:48:08;;;;;;;0.20;0.20;;;;;;;;;;5088788;28;20271;-66
2023/01/21 05:50:34;;;;;;;0.30;0.30;;;;;;;;;;5062703;28;20250;-66
2023/01/21 05:53:00;;;;;;;0.20;0.20;;;;;;;;;;5090714;28;20484;-66
2023/01/21 05:55:27;;;;;;;0.20;0.20;;;;;;;;;;5060973;28;20252;-67
2023/01/21 05:57:54;;;;;;;0.30;0.30;;;;;;;;;;5092579;28;20231;-67
2023/01/21 06:00:21;;;;;;;0.30;0.30;;;;;;;;;;5058266;28;20262;-66
2023/01/21 06:02:48;;;;;;;0.20;0.20;;;;;;;;;;5094245;28;20199;-66
2023/01/21 06:05:14;;;;;;;0.20;0.20;;;;;;;;;;5056985;28;20295;-66
2023/01/21 06:07:40;;;;;;;0.20;0.20;;;;;;;;;;5095871;28;20486;-66
2023/01/21 06:10:07;;;;;;;0.20;0.20;;;;;;;;;;5061308;28;20234;-66
2023/01/21 06:12:34;;;;;;;0.30;0.30;;;;;;;;;;5097461;28;20244;-66
2023/01/21 06:15:01;;;;;;;0.20;0.20;;;;;;;;;;5065211;28;20237;-66
2023/01/21 06:17:28;;;;;;;0.30;0.30;;;;;;;;;;5087121;28;20243;-65
2023/01/21 06:19:54;;;;;;;0.20;0.20;;;;;;;;;;5064811;28;20210;-65
2023/01/21 06:22:21;;;;;;;0.20;0.20;;;;;;;;;;5087111;28;20305;-66
2023/01/21 06:24:47;;;;;;;0.23;0.23;;;;;;;;;;5065507;28;20257;-66
2023/01/21 06:27:13;;;;;;;0.20;0.20;;;;;;;;;;5086869;28;20238;-65
2023/01/21 06:29:40;;;;;;;0.20;0.20;;;;;;;;;;5065362;28;20211;-65
2023/01/21 06:32:07;;;;;;;0.27;0.27;;;;;;;;;;5086589;28;20270;-65
2023/01/21 06:34:34;;;;;;;0.20;0.20;;;;;;;;;;5065257;28;20273;-66
2023/01/21 06:37:00;;;;;;;1.93;1.80;;;;;;;;;;5084955;28;20250;-66
2023/01/21 06:39:26;;;;;;;0.20;0.20;;;;;;;;;;5066711;28;20204;-65
2023/01/21 06:41:53;;;;;;;0.20;0.20;;;;;;;;;;5082887;28;20265;-65
2023/01/21 06:44:19;;;;;;;0.27;0.27;;;;;;;;;;5068548;28;20225;-66
2023/01/21 06:46:45;;;;;;;0.23;0.23;;;;;;;;;;5080889;28;20240;-65
2023/01/21 06:49:13;;;;;;;0.20;0.20;;;;;;;;;;5070505;28;20275;-65
2023/01/21 06:51:40;;;;;;;0.30;0.30;;;;;;;;;;5079096;28;20585;-65
2023/01/21 06:54:06;;;;;;;0.27;0.27;;;;;;;;;;5072039;28;20560;-65
2023/01/21 06:56:32;;;;;;;0.30;0.30;;;;;;;;;;5077156;28;20302;-66
2023/01/21 06:58:59;;;;;;;0.23;0.23;;;;;;;;;;5073843;28;20453;-66
2023/01/21 07:01:25;;;;;;;0.20;0.20;;;;;;;;;;5075003;28;20240;-66
2023/01/21 07:03:51;;;;;;;0.30;0.30;;;;;;;;;;5075644;28;20498;-66
2023/01/21 07:06:20;;;;;;;0.23;0.23;;;;;;;;;;5073003;28;20302;-66
2023/01/21 07:08:47;;;;;;;0.30;0.30;;;;;;;;;;5077031;28;20211;-66
2023/01/21 07:11:13;;;;;;;0.27;0.27;;;;;;;;;;5071690;28;20234;-65
2023/01/21 07:13:40;;;;;;;0.30;0.30;;;;;;;;;;5078683;28;20442;-66
2023/01/21 07:16:07;;;;;;;0.30;0.30;;;;;;;;;;5069810;28;20309;-66
2023/01/21 07:18:33;;;;;;;0.20;0.20;;;;;;;;;;5080427;28;20445;-66
2023/01/21 07:20:59;;;;;;;0.20;0.20;;;;;;;;;;5067953;28;20240;-66
2023/01/21 07:23:28;;;;;;;0.20;0.20;;;;;;;;;;5082378;28;20243;-66
2023/01/21 07:25:55;;;;;;;0.20;0.20;;;;;;;;;;5066550;28;20241;-66
2023/01/21 07:28:21;;;;;;;0.20;0.20;;;;;;;;;;5083224;28;20241;-67
2023/01/21 07:30:47;;;;;;;0.30;0.30;;;;;;;;;;5064075;28;20265;-65
2023/01/21 07:33:14;;;;;;;0.20;0.20;;;;;;;;;;5085158;28;20204;-66
2023/01/21 07:35:40;;;;;;;0.20;0.20;;;;;;;;;;5062564;28;20325;-66
2023/01/21 07:38:07;;;;;;;0.20;0.20;;;;;;;;;;5087095;28;20440;-66
2023/01/21 07:40:34;;;;;;;0.20;0.20;;;;;;;;;;5060520;28;20521;-66
2023/01/21 07:43:01;;;;;;;0.20;0.20;;;;;;;;;;5088806;28;20214;-65
2023/01/21 07:45:27;;;;;;;0.20;0.20;;;;;;;;;;5059012;28;20247;-65
2023/01/21 07:47:53;;;;;;;0.20;0.20;;;;;;;;;;5090591;28;20381;-65
2023/01/21 07:50:20;;;;;;;0.20;0.20;;;;;;;;;;5056722;28;20485;-65
2023/01/21 07:52:46;;;;;;;0.20;0.20;;;;;;;;;;5092444;28;20194;-66
2023/01/21 07:55:12;;;;;;;0.20;0.20;;;;;;;;;;5054806;28;20202;-66
2023/01/21 07:57:40;;;;;;;0.20;0.20;;;;;;;;;;5094196;28;20260;-65
2023/01/21 08:00:07;;;;;;;0.20;0.20;;;;;;;;;;5063067;28;20217;-66
2023/01/21 08:02:33;;;;;;;0.20;0.20;;;;;;;;;;5094922;28;20287;-66
2023/01/21 08:05:00;;;;;;;0.20;0.20;;;;;;;;;;5063815;28;20289;-66
2023/01/21 08:07:26;;;;;;;0.20;0.20;;;;;;;;;;5085312;28;20246;-65
2023/01/21 08:09:53;;;;;;;0.20;0.20;;;;;;;;;;5063832;28;20272;-66
2023/01/21 08:12:19;;;;;;;0.20;0.20;;;;;;;;;;5085225;28;20471;-66
2023/01/21 08:14:47;;;;;;;0.20;0.20;;;;;;;;;;5063834;28;20209;-66
2023/01/21 08:17:13;;;;;;;0.20;0.20;;;;;;;;;;5085415;28;20306;-66
2023/01/21 08:19:39;;;;;;;0.20;0.20;;;;;;;;;;5063873;28;20211;-66
2023/01/21 08:22:06;;;;;;;0.67;0.67;;;;;;;;;;5084984;28;20260;-67
2023/01/21 08:24:32;;;;;;;0.20;0.20;;;;;;;;;;5063770;28;20229;-66
2023/01/21 08:26:59;;;;;;;0.20;0.20;;;;;;;;;;5082883;28;20566;-67
2023/01/21 08:29:25;;;;;;;0.30;0.30;;;;;;;;;;5065763;28;20205;-67
2023/01/21 08:31:53;;;;;;;0.27;0.27;;;;;;;;;;5080874;28;20255;-72
2023/01/21 08:34:19;;;;;;;0.20;0.20;;;;;;;;;;5067247;28;20209;-68
2023/01/21 08:36:46;;;;;;;0.20;0.20;;;;;;;;;;5079256;28;20303;-74
2023/01/21 08:39:12;;;;;;;0.20;0.20;;;;;;;;;;5069202;28;20521;-66
2023/01/21 08:41:40;;;;;;;0.27;0.27;;;;;;;;;;5077229;28;20296;-65
2023/01/21 08:44:07;;;;;;;0.30;0.30;;;;;;;;;;5074467;28;20221;-69
2023/01/21 08:46:33;;;;;;;0.20;0.20;;;;;;;;;;5079829;28;20461;-65
2023/01/21 08:49:01;;;;;;;0.30;0.30;;;;;;;;;;5076476;28;20426;-69
2023/01/21 08:51:27;;;;;;;0.30;0.30;;;;;;;;;;5078043;28;20257;-67
2023/01/21 08:53:53;;;;;;;0.20;0.20;;;;;;;;;;5077662;28;20532;-66
2023/01/21 08:56:20;;;;;;;0.27;0.27;;;;;;;;;;5075969;28;20257;-66
2023/01/21 08:58:46;;;;;;;0.23;0.23;;;;;;;;;;5079646;28;20232;-65
2023/01/21 09:01:14;;;;;;;0.20;0.20;;;;;;;;;;5073899;28;20239;-65
2023/01/21 09:03:40;;;;;;;0.20;0.20;;;;;;;;;;5081442;28;20239;-65
2023/01/21 09:06:08;;;;;;;0.30;0.30;;;;;;;;;;5072417;28;20303;-65
2023/01/21 09:08:36;;;;;;;0.20;0.20;;;;;;;;;;5082693;28;20462;-66
2023/01/21 09:11:03;;;;;;;0.20;0.20;;;;;;;;;;5070902;28;20245;-65
2023/01/21 09:13:30;;;;;;;0.20;0.20;;;;;;;;;;5084103;28;20234;-66
2023/01/21 09:15:56;;;;;;;0.20;0.20;;;;;;;;;;5069372;28;20313;-66
2023/01/21 09:18:23;;;;;;;0.30;0.30;;;;;;;;;;5085773;28;20451;-67
2023/01/21 09:20:49;;;;;;;0.20;0.20;;;;;;;;;;5067256;28;20318;-66
2023/01/21 09:23:27;;;;;;;0.20;0.20;;;;;;;;;;5087449;28;20449;-66
2023/01/21 09:25:54;;;;;;;0.20;0.20;;;;;;;;;;5068314;28;20601;-66
2023/01/21 09:28:21;;;;;;;0.20;0.20;;;;;;;;;;5085969;28;20547;-65
2023/01/21 09:30:47;;;;;;;0.20;0.20;;;;;;;;;;5066764;28;20238;-65
2023/01/21 09:33:14;;;;;;;0.27;0.27;;;;;;;;;;5087714;28;20271;-67
2023/01/21 09:35:41;;;;;;;0.20;0.20;;;;;;;;;;5064713;28;20255;-66
2023/01/21 09:38:07;;;;;;;0.27;0.27;;;;;;;;;;5089648;28;20293;-65
2023/01/21 09:40:35;;;;;;;0.27;0.27;;;;;;;;;;5062746;28;20247;-65
2023/01/21 09:43:03;;;;;;;0.27;0.27;;;;;;;;;;5091175;28;20224;-66
2023/01/21 09:45:30;;;;;;;0.30;0.30;;;;;;;;;;5061688;28;20255;-66
2023/01/21 09:47:56;;;;;;;0.30;0.30;;;;;;;;;;5092116;28;20395;-65
2023/01/21 09:50:23;;;;;;;0.20;0.20;;;;;;;;;;5059657;28;20207;-65
2023/01/21 09:52:51;;;;;;;0.20;0.20;;;;;;;;;;5093380;28;20270;-66
2023/01/21 09:55:19;;;;;;;0.20;0.20;;;;;;;;;;5057132;28;20436;-68
2023/01/21 09:58:10;;;;;;;0.20;0.20;;;;;;;;;;5094230;28;20275;-67
2023/01/21 10:00:40;;;;;;;0.20;0.20;;;;;;;;;;5052495;28;20239;-65
2023/01/21 10:03:12;;;;;;;0.20;0.20;;;;;;;;;;5088879;28;20208;-65
2023/01/21 10:05:43;;;;;;;0.20;0.20;;;;;;;;;;5063838;28;20465;-66
2023/01/21 10:08:13;;;;;;;0.20;0.20;;;;;;;;;;5087715;28;20273;-66
2023/01/21 10:10:42;;;;;;;0.20;0.20;;;;;;;;;;5063780;28;20255;-65
2023/01/21 10:13:16;;;;;;;0.20;0.20;;;;;;;;;;5088180;28;20206;-66
2023/01/21 10:15:49;;;;;;;0.20;0.20;;;;;;;;;;5064586;28;20314;-65
2023/01/21 10:18:17;;;;;;;0.20;0.20;;;;;;;;;;5086036;28;20240;-65
2023/01/21 10:20:45;;;;;;;0.20;0.20;;;;;;;;;;5064634;28;20307;-65
2023/01/21 10:23:15;;;;;;;0.20;0.20;;;;;;;;;;5087068;28;20242;-64
2023/01/21 10:25:41;;;;;;;0.90;0.87;;;;;;;;;;5063832;28;20414;-64
2023/01/21 10:28:11;;;;;;;0.20;0.20;;;;;;;;;;5088125;28;20394;-65
2023/01/21 10:30:38;;;;;;;0.40;0.40;;;;;;;;;;5062894;28;20248;-65
2023/01/21 10:33:12;;;;;;;0.27;0.27;;;;;;;;;;5088567;28;20236;-65
2023/01/21 10:35:46;;;;;;;0.20;0.20;;;;;;;;;;5062971;28;20240;-65
2023/01/21 10:38:17;;;;;;;0.20;0.20;;;;;;;;;;5086803;28;20422;-65
2023/01/21 10:40:48;;;;;;;0.20;0.20;;;;;;;;;;5063820;28;20239;-65
2023/01/21 10:43:23;;;;;;;0.20;0.20;;;;;;;;;;5085737;28;20205;-66
2023/01/21 10:45:55;;;;;;;0.20;0.20;;;;;;;;;;5065830;28;20246;-65
2023/01/21 10:48:27;;;;;;;0.20;0.20;;;;;;;;;;5083965;28;20206;-65
2023/01/21 10:50:56;;;;;;;0.20;0.20;;;;;;;;;;5066858;28;20439;-65
2023/01/21 10:53:27;;;;;;;0.20;0.20;;;;;;;;;;5083639;28;20237;-65
2023/01/21 10:55:59;;;;;;;0.20;0.20;;;;;;;;;;5066627;28;20243;-65
2023/01/21 10:58:29;;;;;;;0.20;0.20;;;;;;;;;;5082681;28;20215;-65
2023/01/21 11:00:57;;;;;;;0.20;0.20;;;;;;;;;;5067002;28;20240;-65
2023/01/21 11:03:32;;;;;;;0.87;0.87;;;;;;;;;;5083293;28;20276;-64
2023/01/21 11:06:00;;;;;;;0.20;0.20;;;;;;;;;;5067509;28;20268;-65
2023/01/21 11:08:27;;;;;;;0.20;0.20;;;;;;;;;;5082478;28;20232;-65
2023/01/21 11:10:54;;;;;;;0.20;0.20;;;;;;;;;;5066386;28;20240;-65
2023/01/21 11:13:21;;;;;;;0.20;0.20;;;;;;;;;;5083844;28;20276;-66
2023/01/21 11:15:50;;;;;;;0.20;0.20;;;;;;;;;;5064921;28;20304;-66
2023/01/21 11:18:28;;;;;;;0.20;0.20;;;;;;;;;;5084850;28;20247;-66
2023/01/21 11:20:56;;;;;;;0.20;0.20;;;;;;;;;;5066659;28;20605;-65
2023/01/21 11:23:24;;;;;;;0.20;0.20;;;;;;;;;;5082853;28;20245;-66
2023/01/21 11:25:51;;;;;;;0.20;0.20;;;;;;;;;;5065627;28;20522;-65
2023/01/21 11:28:21;;;;;;;0.20;0.20;;;;;;;;;;5084139;28;20463;-66
2023/01/21 11:30:48;;;;;;;0.20;0.20;;;;;;;;;;5064391;28;20240;-65
2023/01/21 11:33:21;;;;;;;10.00;5.30;;;;;;;;;;5084877;28;20206;-65
2023/01/21 11:35:49;;;;;;;0.20;0.20;;;;;;;;;;5064643;28;20304;-65
2023/01/21 11:38:33;;;;;;;0.20;0.20;;;;;;;;;;5084820;28;20242;-65
2023/01/21 11:41:01;;;;;;;0.20;0.20;;;;;;;;;;5067406;28;20240;-66
2023/01/21 11:43:35;;;;;;;0.20;0.20;;;;;;;;;;5081371;28;20221;-65
2023/01/21 11:46:20;;;;;;;0.20;0.20;;;;;;;;;;5068160;28;20241;-66
2023/01/21 11:48:46;;;;;;;0.20;0.20;;;;;;;;;;5076170;28;20438;-65
2023/01/21 11:51:15;;;;;;;0.20;0.20;;;;;;;;;;5070955;28;20612;-67
2023/01/21 11:53:41;;;;;;;0.20;0.20;;;;;;;;;;5077773;28;20278;-65
2023/01/21 11:56:07;;;;;;;0.20;0.20;;;;;;;;;;5069531;28;20246;-65
2023/01/21 11:58:35;;;;;;;0.20;0.20;;;;;;;;;;5079368;28;20269;-65
2023/01/21 12:01:03;;;;;;;0.20;0.20;;;;;;;;;;5066943;28;20262;-65
2023/01/21 12:03:31;;;;;;;0.20;0.20;;;;;;;;;;5081499;28;20201;-66
2023/01/21 12:05:58;;;;;;;0.20;0.20;;;;;;;;;;5066455;28;20256;-65
2023/01/21 12:08:27;;;;;;;0.20;0.20;;;;;;;;;;5081781;28;20276;-65
2023/01/21 12:10:54;;;;;;;0.30;0.30;;;;;;;;;;5065594;28;20310;-66
2023/01/21 12:13:23;;;;;;;0.20;0.20;;;;;;;;;;5083057;28;20285;-66
2023/01/21 12:16:02;;;;;;;0.20;0.20;;;;;;;;;;5064404;28;20247;-65
2023/01/21 12:18:34;;;;;;;0.20;0.20;;;;;;;;;;5083875;28;20247;-65
2023/01/21 12:21:04;;;;;;;0.20;0.20;;;;;;;;;;5071660;28;20265;-65
2023/01/21 12:23:46;;;;;;;0.10;0.10;;;;;;;;;;5084496;28;20205;-68
2023/01/21 12:26:18;;;;;;;0.20;0.20;;;;;;;;;;5074601;28;20302;-64
2023/01/21 12:28:51;;;;;;;0.20;0.20;;;;;;;;;;5080611;28;20246;-65
2023/01/21 12:31:23;;;;;;;0.20;0.20;;;;;;;;;;5076025;28;20303;-66
2023/01/21 12:33:51;;;;;;;0.20;0.20;;;;;;;;;;5079395;28;20243;-65
2023/01/21 12:36:20;;;;;;;0.20;0.20;;;;;;;;;;5076012;28;20299;-66
2023/01/21 12:38:50;;;;;;;0.17;0.17;;;;;;;;;;5079966;28;20234;-64
2023/01/21 12:41:18;;;;;;;0.20;0.20;;;;;;;;;;5075615;28;20238;-65
2023/01/21 12:43:46;;;;;;;0.70;0.70;;;;;;;;;;5080458;28;20282;-65
2023/01/21 12:46:16;;;;;;;0.20;0.20;;;;;;;;;;5074504;28;20473;-65
2023/01/21 12:48:44;;;;;;;0.20;0.20;;;;;;;;;;5080861;28;20210;-63
2023/01/21 12:51:14;;;;;;;0.20;0.20;;;;;;;;;;5074005;28;20300;-65
2023/01/21 12:53:44;;;;;;;0.20;0.20;;;;;;;;;;5081396;28;20539;-65
2023/01/21 12:56:20;;;;;;;0.20;0.20;;;;;;;;;;5073710;28;20564;-65
2023/01/21 12:58:50;;;;;;;0.20;0.20;;;;;;;;;;5080014;28;20244;-65
2023/01/21 13:01:19;;;;;;;0.20;0.20;;;;;;;;;;5075173;28;20240;-65
2023/01/21 13:03:50;;;;;;;0.20;0.20;;;;;;;;;;5080042;28;20506;-64
2023/01/21 13:06:19;;;;;;;0.20;0.20;;;;;;;;;;5074804;28;20271;-64
2023/01/21 13:08:50;;;;;;;0.20;0.20;;;;;;;;;;5079922;28;20449;-64
2023/01/21 13:11:20;;;;;;;0.20;0.20;;;;;;;;;;5074982;28;20244;-64
2023/01/21 13:13:50;;;;;;;0.20;0.20;;;;;;;;;;5079903;28;20424;-64
2023/01/21 13:16:17;;;;;;;0.20;0.20;;;;;;;;;;5075040;28;20235;-69
2023/01/21 13:18:45;;;;;;;0.20;0.20;;;;;;;;;;5081042;28;20233;-69
2023/01/21 13:21:16;;;;;;;0.10;0.10;;;;;;;;;;5074036;28;20309;-68
2023/01/21 13:23:45;;;;;;;0.20;0.20;;;;;;;;;;5081244;28;20442;-70
2023/01/21 13:26:15;;;;;;;0.20;0.20;;;;;;;;;;5073704;28;20309;-70
2023/01/21 13:28:45;;;;;;;0.20;0.20;;;;;;;;;;5080179;28;20289;-70
2023/01/21 13:31:13;;;;;;;0.20;0.20;;;;;;;;;;5073399;28;20269;-70
2023/01/21 13:33:44;;;;;;;0.20;0.20;;;;;;;;;;5080945;28;20514;-70
2023/01/21 13:36:18;;;;;;;0.20;0.20;;;;;;;;;;5072959;28;20470;-70
2023/01/21 13:38:48;;;;;;;0.73;0.73;;;;;;;;;;5079477;28;20273;-70
2023/01/21 13:41:26;;;;;;;0.20;0.20;;;;;;;;;;5073577;28;20266;-70
2023/01/21 13:44:14;;;;;;;0.20;0.20;;;;;;;;;;5077239;28;20245;-70
2023/01/21 13:46:47;;;;;;;5.50;3.10;;;;;;;;;;5080613;28;20243;-70
2023/01/21 13:49:34;;;;;;;0.20;0.20;;;;;;;;;;5071665;28;20206;-71
2023/01/21 13:52:06;;;;;;;0.23;0.23;;;;;;;;;;5086355;28;20304;-70
2023/01/21 13:54:40;;;;;;;0.20;0.20;;;;;;;;;;5067644;28;20238;-70
2023/01/21 13:57:17;;;;;;;0.20;0.20;;;;;;;;;;5087362;28;20360;-70
2023/01/21 13:59:49;;;;;;;0.20;0.20;;;;;;;;;;5066231;28;20241;-70
2023/01/21 14:02:19;;;;;;;0.23;0.23;;;;;;;;;;5087836;28;20315;-70
2023/01/21 14:04:48;;;;;;;0.20;0.20;;;;;;;;;;5066140;28;20449;-69
2023/01/21 14:07:18;;;;;;;0.20;0.20;;;;;;;;;;5087632;28;20439;-70
2023/01/21 14:09:46;;;;;;;0.20;0.20;;;;;;;;;;5066116;28;20210;-71
2023/01/21 14:12:14;;;;;;;0.20;0.20;;;;;;;;;;5087655;28;20293;-68
2023/01/21 14:14:56;;;;;;;0.20;0.20;;;;;;;;;;5065868;28;20276;-71
2023/01/21 14:17:31;;;;;;;0.20;0.20;;;;;;;;;;5087375;28;20236;-69
2023/01/21 14:20:08;;;;;;;0.20;0.20;;;;;;;;;;5065294;28;20561;-70
2023/01/21 14:22:50;;;;;;;0.50;0.50;;;;;;;;;;5074171;28;20262;-69
2023/01/21 14:25:19;;;;;;;0.20;0.20;;;;;;;;;;5075131;28;20369;-69
2023/01/21 14:27:49;;;;;;;0.20;0.20;;;;;;;;;;5084151;28;20452;-69
2023/01/21 14:30:19;;;;;;;0.20;0.20;;;;;;;;;;5074631;28;20299;-69
2023/01/21 14:32:47;;;;;;;1.10;1.10;;;;;;;;;;5084128;28;20200;-68
2023/01/21 14:35:17;;;;;;;0.20;0.20;;;;;;;;;;5074901;28;20205;-68
2023/01/21 14:37:47;;;;;;;0.20;0.20;;;;;;;;;;5083987;28;20262;-69
2023/01/21 14:40:17;;;;;;;0.20;0.20;;;;;;;;;;5074175;28;20227;-68
2023/01/21 14:42:45;;;;;;;0.20;0.20;;;;;;;;;;5083944;28;20222;-69
2023/01/21 14:45:12;;;;;;;0.53;0.53;;;;;;;;;;5074733;28;20245;-68
2023/01/21 14:47:44;;;;;;;0.30;0.30;;;;;;;;;;5084115;28;20238;-70
2023/01/21 14:50:11;;;;;;;0.20;0.20;;;;;;;;;;5074651;28;20381;-69
2023/01/21 14:52:41;;;;;;;0.20;0.20;;;;;;;;;;5084058;28;20265;-70
2023/01/21 14:55:23;;;;;;;0.20;0.20;;;;;;;;;;5078776;28;20233;-70